Detall de PIREP

Printer-friendly versionPDF version

[2014/01/12 10:46:00]
Flight IATA:CT2207
Pilot Number:012
Company ICAO:CAT
Aircraft Type:F100/A
PAX:103
Aircraft Registration:PFJ
Departing Airport: LFSB
Destination Airport: LFMP
Alternate Airport:LFBO
Online: VATSIM
Route:LUMEL UN176 MOROK UN852 BALSI UY16 MTL DCT MOLEN DCT NG DCT FJR
Flight Level:F270
No Slew and time accel
No pause
Crash detect
Detect pilot in Cockpit between each 30 and 45 minutes
10:46 Zero fuel Weight: 80710 Lbs, Fuel Weight: 15936 Lbs
10:46 VATSIM:LFSB 121000Z 34005KT 2000 BR BKN001 BKN018 04/04 Q1025 BECMG 3000 BR BKN002
10:46 VATSIM:LFMP 121000Z 05006KT 9999 BKN010 12/11 Q1023 NOSIG
10:46 VOICE CATALONIAN
10:49 Parking Brakes off
10:55 Take-off
10:55 Take off Weight: 96199 Lbs
10:55 Wind: 328º @ 004 Knots Heading: 333º
10:55 POS N47º 36´ 07´´ E007º 31´ 14´´
10:55 Gear Up: 157 Knots
10:55 Flaps:2 at 157 Knots
10:55 Flaps:1 at 174 Knots
10:56 Flaps:0 at 193 Knots
11:06 TOC
11:06 Fuel Weight: 13665 Lb
11:10 Wind:315º@015 Knots Heading: 214º Ground Speed: 444 Knots Altitude 27303 ft
11:25 Wind:264º@015 Knots Heading: 225º Ground Speed: 429 Knots Altitude 27267 ft
11:38 TOD
11:38 Fuel Weight: 10664 Lb
11:40 Wind:299º@008 Knots Heading: 225º Ground Speed: 386 Knots Altitude 24524 ft
11:48 Flaps:1 at 248 Knots
11:51 Flaps:0 at 231 Knots
11:55 Wind:004º@005 Knots Heading: 277º Ground Speed: 264 Knots Altitude 2608 ft
11:55 Flaps:1 at 223 Knots
11:56 Flaps:2 at 195 Knots
11:56 Gear Down: 190 Knots
11:56 Flaps:3 at 167 Knots
11:56 Flaps:4 at 156 Knots
11:59 TouchDown:Rate -306 ft/min Speed: 121 Knots
11:59 VATSIM:LFMP 121130Z 07006KT 030V090 9999 SCT020 SCT040 13/11 Q1022 NOSIG
11:59 Land
11:59 Wind:059º@005 Knots
11:59 Heading: 329º
11:59 Flight Duration: 01:04
11:59 Landing Weight: 90486 Lbs
11:59 POS N42º 44´ 52´´ E002º 52´ 01´´
12:01 Parking brakes on
12:01 Block to Block Duration: 01:12
12:01 Final Fuel: 9653 Lbls
12:01 Spent Fuel: 6283 Lbls
12:01 Flight Length: 394 NM
12:01 TOD Land Length: 97 NM

Exportar CSV

Powered by Drupal - Modified by Danger4k